MMZO

Details ICAO MMZO (ZLO)
Name PLAYA DE ORO INTERNATIONAL
Region Mexico
Timezone America/Mexico_City (UTC-5.0)
Plans Departing 38
Arriving 53
Stats Elevation 29 ft / 9 m (AMSL)
Location 19.144700° -104.558000°
Runways 1
Magnetic Variation 6.492° E
Sunrise 2019-04-23 12:36:23 UTC / 2019-04-23 07:36:23 Local
Sunset 2019-04-24 01:19:00 UTC / 2019-04-23 20:19:00 Local
Advertisement - Login to hide

Runways

ID Width Length Bearing (true/mag) Surface Threshold Overrun Markings Lighting
10 148 ft / 45 m 7,225 ft / 2,202 m 106.18° / 99.69° ASPHALT 0 ft / 0 m 0 ft / 0 m APP CENTERLINE EDGE THRESHOLD MALSF
28 148 ft / 45 m 7,225 ft / 2,202 m 286.19° / 279.69° ASPHALT 0 ft / 0 m 0 ft / 0 m APP CENTERLINE EDGE THRESHOLD MALSF

Map

Weather


0- 5 10 15 20 25 30 35+ Temperature / °C

Clouds and Precipitation
Forecast for 2019-04-23 18:00 UTC. Updated 2 hours ago

Ground ~20,000 ft ~40,000 ft Winds

METAR

MMZO 231547Z 12010KT 8SM SCT040 SCT120 25/21 A2993 RMK 8/150 HZY

TAF

TAF AMD MMZO 231300Z 2313/2406 00000KT 1SM BR BKN010 OVC250 FM231400 23005KT 5SM HZ SCT020 FM231600 24012KT P6SM SCT020 BKN250 FM240500 00000KT P6SM SCT250

Frequencies

Approach 118.70 MHz MANZANILLO APP/TWR
Warning: Do not use this data for real-world aviation or navigation. No guarantee of current accuracy is given.